Strona główna
METAR-TAF:

METAR-TAF

Lotnisko :

Čáslav, Czechy

Szerokość geograficzna: 49-56-23N, Długość geograficzna: 15-22-55E, wysokość: 242 m

Aktualna obserwacja pogody

Raport powstał 55 minut temu, godzina 01:00 UTC
Wiatr 1 kt z kierunków zmiennych
Temperatura 19°C
Wilgotność 68%
Ciśnienie 1021 hPa
Widzialność 10 km lub więcej
Brak chmur poniżej 1500 m i brak chmur cumulonimbus

METAR: LKCV 190100Z VRB01KT CAVOK 19/13 Q1021 NOSIG RMK BLU BLU

czas: 03:55 (01:55 UTC)

Prognoza

Raport powstał 2 godziny i 55 minut temu, godzina 23:00 UTC
Prognoza ważna od 19 godzina 00 UTC do 20 godzina 00 UTC
Wiatr 2 kt z kierunków zmiennych
Widzialność 10 km lub więcej
Brak chmur poniżej 1500 m i brak chmur cumulonimbus
Stopniowe zmiany
od 19 godzina 07 UTC do 19 godzina 10 UTC
Wiatr 8 kt od północ
Przejściowo
od 19 godzina 09 UTC do 19 godzina 17 UTC
Rozproszone chmury na wysokości 4000 ft

TAF: LKCV 182300Z 1900/2000 VRB02KT CAVOK BECMG 1907/1910 35008KT TEMPO 1909/1917 SCT040

Obserwacja i prognoza pogody dla ponad 4000 lotnisk (raport METAR i TAF).

Dostępne stacje oznaczono żółtymi i czerwonymi punktami na mapie.

Najedź kursorem aby zobaczyć nazwę stacji.

Kliknij aby zobaczyć obserwacje i prognozy pogody.

Aby zmienić mapę: kliknij na zielony przycisk z czarnym krzyżykiem, aby powiększyć; na zielony przycisk z myślnikiem, aby pomniejszyć; na zielone strzałki, aby przejść do map sąsiednich.


METAR-TAF: